Time;durP1;ratioP1;P1;durP2;ratioP2;P2;SDS_P1;SDS_P2;PMS_P1;PMS_P2;Temp;Humidity;BMP_temperature;BMP_pressure;BME280_temperature;BME280_humidity;BME280_pressure;Samples;Min_cycle;Max_cycle;Signal;HPM_P1;HPM_P2
2022/10/04 00:01:54;;;;;;;13.88;4.20;;;11.90;99.90;;;;;;5005351;28;20119;-65
2022/10/04 00:04:31;;;;;;;8.27;2.50;;;11.90;99.90;;;;;;5025698;28;20072;-57
2022/10/04 00:07:06;;;;;;;9.80;3.40;;;11.90;99.90;;;;;;5025281;28;20108;-61
2022/10/04 00:09:39;;;;;;;10.88;2.75;;;12.00;99.90;;;;;;5027908;28;20077;-60
2022/10/04 00:12:06;;;;;;;10.60;2.90;;;11.90;99.90;;;;;;5026567;28;20042;-60
2022/10/04 00:14:36;;;;;;;10.23;2.65;;;11.90;99.90;;;;;;5028258;28;20133;-62
2022/10/04 00:17:12;;;;;;;;;;;11.90;99.90;;;;;;5026585;28;20099;-58
2022/10/04 00:19:51;;;;;;;7.07;2.60;;;11.90;99.90;;;;;;5024358;28;19952;-64
2022/10/04 00:22:34;;;;;;;10.38;2.15;;;11.90;99.90;;;;;;5016006;28;20112;-59
2022/10/04 00:25:06;;;;;;;14.13;2.80;;;11.90;99.90;;;;;;5026325;28;20038;-64
2022/10/04 00:27:33;;;;;;;14.88;3.90;;;12.00;99.90;;;;;;5028321;28;20049;-68
2022/10/04 00:30:01;;;;;;;12.55;2.70;;;11.90;99.90;;;;;;5026360;28;20052;-65
2022/10/04 00:32:39;;;;;;;9.52;2.80;;;11.90;99.90;;;;;;5015848;28;20125;-62
2022/10/04 00:35:23;;;;;;;16.17;2.92;;;11.90;99.90;;;;;;5009419;28;20488;-68
2022/10/04 00:38:25;;;;;;;8.30;2.75;;;11.90;99.90;;;;;;5008652;28;20504;-59
2022/10/04 00:41:04;;;;;;;9.13;2.42;;;11.90;99.90;;;;;;4985872;28;20058;-59
2022/10/04 00:43:33;;;;;;;14.50;3.65;;;11.90;99.90;;;;;;5026226;28;20053;-61
2022/10/04 00:46:04;;;;;;;14.13;2.90;;;11.90;99.90;;;;;;5025324;28;20049;-64
2022/10/04 00:48:42;;;;;;;20.70;3.17;;;11.90;99.90;;;;;;5026020;28;20041;-58
2022/10/04 00:51:20;;;;;;;12.80;3.20;;;11.90;99.90;;;;;;5025841;28;20107;-61
2022/10/04 00:54:01;;;;;;;12.38;3.10;;;11.90;99.90;;;;;;5027619;28;20037;-60
2022/10/04 00:56:36;;;;;;;13.88;3.10;;;11.90;99.90;;;;;;5026526;28;20051;-59
2022/10/04 00:59:21;;;;;;;10.63;3.33;;;11.90;99.90;;;;;;5025535;28;20053;-65
2022/10/04 01:01:51;;;;;;;8.63;3.33;;;11.90;99.90;;;;;;5009465;28;20124;-59
2022/10/04 01:04:49;;;;;;;10.88;3.35;;;11.80;99.90;;;;;;5008955;28;20487;-62
2022/10/04 01:07:21;;;;;;;7.82;3.25;;;11.90;99.90;;;;;;5000130;28;20482;-65
2022/10/04 01:10:02;;;;;;;10.25;3.22;;;11.80;99.90;;;;;;5009324;28;20473;-61
2022/10/04 01:12:48;;;;;;;14.30;3.45;;;11.80;99.90;;;;;;5007760;28;20049;-61
2022/10/04 01:15:32;;;;;;;8.45;2.70;;;11.90;99.90;;;;;;5009343;28;20559;-65
2022/10/04 01:18:28;;;;;;;9.60;2.85;;;11.90;99.90;;;;;;5026665;28;20419;-59
2022/10/04 01:20:53;;;;;;;13.43;3.22;;;11.90;99.90;;;;;;5025414;28;20081;-62
2022/10/04 01:23:43;;;;;;;11.88;2.97;;;11.80;99.90;;;;;;5028185;28;20041;-59
2022/10/04 01:26:31;;;;;;;14.88;3.88;;;11.80;99.90;;;;;;5045349;28;20530;-58
2022/10/04 01:28:58;;;;;;;13.40;3.30;;;11.80;99.90;;;;;;5046079;28;20451;-65
2022/10/04 01:31:32;;;;;;;14.73;3.38;;;11.80;99.90;;;;;;5035939;28;20562;-59
2022/10/04 01:33:59;;;;;;;11.95;3.30;;;11.80;99.90;;;;;;5036869;28;20100;-64
2022/10/04 01:36:26;;;;;;;12.85;3.90;;;11.80;99.90;;;;;;5046443;28;20087;-63
2022/10/04 01:38:53;;;;;;;9.18;3.03;;;11.80;99.90;;;;;;5011462;28;20472;-60
2022/10/04 01:41:32;;;;;;;8.88;3.20;;;11.70;99.90;;;;;;5023535;28;20049;-60
2022/10/04 01:44:02;;;;;;;14.80;3.40;;;11.80;99.90;;;;;;5028573;28;20129;-60
2022/10/04 01:46:31;;;;;;;;;;;11.80;99.90;;;;;;5027639;28;20087;-64
2022/10/04 01:49:01;;;;;;;16.90;3.80;;;11.80;99.90;;;;;;5028910;28;20011;-58
2022/10/04 01:51:32;;;;;;;11.77;3.92;;;11.80;99.90;;;;;;5024009;28;20136;-64
2022/10/04 01:54:22;;;;;;;12.75;3.45;;;11.80;99.90;;;;;;5029021;28;20057;-64
2022/10/04 01:57:16;;;;;;;17.33;3.72;;;11.80;99.90;;;;;;5020507;28;20064;-60
2022/10/04 01:59:49;;;;;;;16.90;3.65;;;11.80;99.90;;;;;;5000558;28;20068;-60
2022/10/04 02:02:25;;;;;;;8.95;3.60;;;11.80;99.90;;;;;;5006996;28;20044;-65
2022/10/04 02:04:54;;;;;;;16.45;3.80;;;11.80;99.90;;;;;;5027307;28;20049;-58
2022/10/04 02:07:21;;;;;;;16.52;4.00;;;11.80;99.90;;;;;;5020524;28;20148;-60
2022/10/04 02:09:53;;;;;;;13.23;3.72;;;11.90;99.90;;;;;;5020066;28;20037;-57
2022/10/04 02:12:19;;;;;;;16.27;4.18;;;11.90;99.90;;;;;;5026848;28;20056;-61
2022/10/04 02:14:52;;;;;;;13.35;4.20;;;11.90;99.90;;;;;;5022287;28;20037;-67
2022/10/04 02:17:26;;;;;;;12.55;3.88;;;11.90;99.90;;;;;;5044412;28;20076;-62
2022/10/04 02:19:52;;;;;;;11.25;3.65;;;11.90;99.90;;;;;;5028781;28;20052;-63
2022/10/04 02:22:21;;;;;;;15.32;4.22;;;12.00;99.90;;;;;;5010208;28;20053;-58
2022/10/04 02:24:48;;;;;;;18.60;4.75;;;11.90;99.90;;;;;;5025103;28;20037;-60
2022/10/04 02:27:15;;;;;;;15.50;4.03;;;11.90;99.90;;;;;;5027694;28;20146;-58
2022/10/04 02:29:41;;;;;;;10.52;3.88;;;11.90;99.90;;;;;;5010872;28;20075;-57
2022/10/04 02:34:54;;;;;;;14.98;4.15;;;11.90;99.90;;;;;;5009159;28;20053;-62
2022/10/04 02:37:26;;;;;;;8.23;3.38;;;11.90;99.90;;;;;;5011928;28;20049;-64
2022/10/04 02:40:03;;;;;;;17.92;4.07;;;12.00;99.90;;;;;;5028809;28;20037;-58
2022/10/04 02:42:42;;;;;;;16.33;4.45;;;11.90;99.90;;;;;;5030788;28;20045;-59
2022/10/04 02:45:39;;;;;;;20.42;3.85;;;11.90;99.90;;;;;;5024747;28;20411;-62
2022/10/04 02:48:20;;;;;;;22.00;4.53;;;11.90;99.90;;;;;;5031026;28;20049;-59
2022/10/04 02:50:50;;;;;;;16.90;5.03;;;11.90;99.90;;;;;;5031665;28;20048;-65
2022/10/04 02:53:33;;;;;;;17.85;4.20;;;11.90;99.90;;;;;;5031170;28;20045;-61
2022/10/04 02:56:01;;;;;;;13.75;4.10;;;11.90;99.90;;;;;;5044455;28;20127;-64
2022/10/04 02:58:28;;;;;;;16.95;4.28;;;11.80;99.90;;;;;;5031249;28;20144;-64
2022/10/04 03:00:57;;;;;;;18.63;4.82;;;11.90;99.90;;;;;;5028935;28;20044;-62
2022/10/04 03:03:33;;;;;;;18.48;5.40;;;11.80;99.90;;;;;;5010359;28;20428;-59
2022/10/04 03:06:13;;;;;;;16.13;4.95;;;11.80;99.90;;;;;;5022211;28;20052;-60
2022/10/04 03:08:50;;;;;;;8.60;4.03;;;11.80;99.90;;;;;;5010471;28;20511;-66
2022/10/04 03:11:18;;;;;;;19.23;4.93;;;11.70;99.90;;;;;;5031186;28;20411;-63
2022/10/04 03:13:53;;;;;;;14.75;4.05;;;11.70;99.90;;;;;;5029948;28;20505;-62
2022/10/04 03:16:20;;;;;;;14.52;4.55;;;11.70;99.90;;;;;;5025536;28;20049;-58
2022/10/04 03:18:48;;;;;;;15.45;4.68;;;11.70;99.90;;;;;;5030443;28;20057;-59
2022/10/04 03:21:18;;;;;;;12.77;4.22;;;11.70;99.90;;;;;;5030265;28;20053;-59
2022/10/04 03:23:46;;;;;;;20.27;3.95;;;11.60;99.90;;;;;;5031092;28;20059;-64
2022/10/04 03:26:33;;;;;;;11.88;4.38;;;11.60;99.90;;;;;;5043295;28;20397;-61
2022/10/04 03:28:59;;;;;;;19.55;5.53;;;11.60;99.90;;;;;;5014655;28;20099;-62
2022/10/04 03:31:27;;;;;;;16.60;4.40;;;11.60;99.90;;;;;;5017425;28;20254;-59
2022/10/04 03:33:56;;;;;;;18.77;4.85;;;11.60;99.90;;;;;;5014796;28;20097;-61
2022/10/04 03:36:24;;;;;;;16.05;4.60;;;11.60;99.90;;;;;;5030055;28;20083;-59
2022/10/04 03:38:53;;;;;;;14.82;4.78;;;11.60;99.90;;;;;;5030430;28;20037;-60
2022/10/04 03:41:22;;;;;;;16.35;4.85;;;11.60;99.90;;;;;;5004406;28;20045;-66
2022/10/04 03:43:49;;;;;;;18.13;4.15;;;11.60;99.90;;;;;;5029570;28;20048;-64
2022/10/04 03:46:17;;;;;;;18.25;4.47;;;11.60;99.90;;;;;;5030415;28;20041;-61
2022/10/04 03:48:45;;;;;;;17.20;4.22;;;11.50;99.90;;;;;;5029721;28;20546;-59
2022/10/04 03:51:17;;;;;;;13.57;4.50;;;11.50;99.90;;;;;;5023121;28;20143;-62
2022/10/04 03:53:46;;;;;;;15.55;4.50;;;11.50;99.90;;;;;;5030016;28;20098;-58
2022/10/04 03:56:16;;;;;;;12.75;3.80;;;11.50;99.90;;;;;;5029875;28;20045;-64
2022/10/04 03:58:44;;;;;;;13.00;4.30;;;11.50;99.90;;;;;;5021207;28;20398;-60
2022/10/04 04:01:34;;;;;;;10.07;4.40;;;11.40;99.90;;;;;;5025992;28;20060;-65
2022/10/04 04:03:59;;;;;;;16.75;4.45;;;11.40;99.90;;;;;;5017237;28;20041;-59
2022/10/04 04:06:33;;;;;;;16.15;4.32;;;11.40;99.90;;;;;;5029339;28;20059;-68
2022/10/04 04:09:03;;;;;;;15.05;4.75;;;11.30;99.90;;;;;;5021324;28;20048;-65
2022/10/04 04:11:30;;;;;;;15.32;4.35;;;11.30;99.90;;;;;;5029849;28;20049;-68
2022/10/04 04:14:05;;;;;;;13.55;4.18;;;11.30;99.90;;;;;;5028742;28;20503;-61
2022/10/04 04:16:31;;;;;;;14.88;4.80;;;11.30;99.90;;;;;;5000073;28;20417;-59
2022/10/04 04:19:04;;;;;;;18.70;5.00;;;11.30;99.90;;;;;;5007944;28;20042;-65
2022/10/04 04:21:30;;;;;;;17.77;5.47;;;11.30;99.90;;;;;;5006778;28;20045;-63
2022/10/04 04:24:10;;;;;;;21.40;5.35;;;11.30;99.90;;;;;;5007957;28;20051;-58
2022/10/04 04:26:44;;;;;;;12.63;5.20;;;11.30;99.90;;;;;;5007078;28;20037;-59
2022/10/04 04:29:15;;;;;;;17.33;5.10;;;11.30;99.90;;;;;;5008637;28;20053;-63
2022/10/04 04:31:51;;;;;;;15.50;5.28;;;11.30;99.90;;;;;;5006545;28;20040;-61
2022/10/04 04:34:21;;;;;;;18.40;5.43;;;11.30;99.90;;;;;;5008901;28;20053;-70
2022/10/04 04:36:47;;;;;;;16.48;5.72;;;11.20;99.90;;;;;;5007819;28;20045;-57
2022/10/04 04:39:38;;;;;;;18.50;5.00;;;11.30;99.90;;;;;;4991525;28;20045;-62
2022/10/04 04:42:30;;;;;;;11.38;4.72;;;11.30;99.90;;;;;;5013056;28;20099;-65
2022/10/04 04:44:59;;;;;;;16.02;5.25;;;11.20;99.90;;;;;;5023811;28;20038;-61
2022/10/04 04:47:33;;;;;;;20.58;6.60;;;11.20;99.90;;;;;;5007800;28;20095;-67
2022/10/04 04:50:17;;;;;;;15.93;4.90;;;11.20;99.90;;;;;;5006213;28;20033;-60
2022/10/04 04:52:47;;;;;;;15.52;4.57;;;11.20;99.90;;;;;;4991189;28;20412;-59
2022/10/04 04:55:26;;;;;;;18.77;5.30;;;11.20;99.90;;;;;;5007069;28;20579;-68
2022/10/04 04:57:54;;;;;;;16.50;4.85;;;11.20;99.90;;;;;;5006698;28;20160;-60
2022/10/04 05:00:26;;;;;;;19.73;5.35;;;11.20;99.90;;;;;;5006603;28;20049;-62
2022/10/04 05:02:59;;;;;;;14.23;4.70;;;11.20;99.90;;;;;;4992100;28;20120;-62
2022/10/04 05:05:32;;;;;;;10.90;4.72;;;11.20;99.90;;;;;;5005404;28;20680;-60
2022/10/04 05:08:13;;;;;;;15.15;4.85;;;11.20;99.90;;;;;;5008702;28;20588;-62
2022/10/04 05:10:44;;;;;;;17.50;5.50;;;11.20;99.90;;;;;;5005407;28;20537;-60
2022/10/04 05:13:11;;;;;;;13.82;4.57;;;11.20;99.90;;;;;;4993968;28;20132;-67
2022/10/04 05:15:39;;;;;;;17.67;4.82;;;11.10;99.90;;;;;;5007905;28;20041;-68
2022/10/04 05:18:30;;;;;;;14.75;4.90;;;11.10;99.90;;;;;;5025322;28;20124;-66
2022/10/04 05:21:10;;;;;;;14.70;5.25;;;11.10;99.90;;;;;;5009432;28;20049;-65
2022/10/04 05:23:36;;;;;;;13.30;4.40;;;11.10;99.90;;;;;;5020678;28;20045;-65
2022/10/04 05:26:03;;;;;;;13.27;4.70;;;11.10;99.90;;;;;;5008790;28;20463;-64
2022/10/04 05:28:29;;;;;;;10.98;4.68;;;11.10;99.90;;;;;;4996471;28;20037;-58
2022/10/04 05:31:18;;;;;;;16.15;4.80;;;11.10;99.90;;;;;;5010546;28;20041;-65
2022/10/04 05:33:54;;;;;;;9.80;4.30;;;11.00;99.90;;;;;;5025337;28;20135;-62
2022/10/04 05:36:48;;;;;;;15.02;4.55;;;11.00;99.90;;;;;;5024026;28;20052;-64
2022/10/04 05:39:23;;;;;;;15.82;5.15;;;11.00;99.90;;;;;;4985142;28;20453;-61
2022/10/04 05:41:55;;;;;;;22.65;5.70;;;11.00;99.90;;;;;;5024871;28;20045;-58
2022/10/04 05:44:54;;;;;;;13.25;4.80;;;11.00;99.90;;;;;;5024336;28;20052;-59
2022/10/04 05:47:26;;;;;;;25.33;5.05;;;10.90;99.90;;;;;;5009120;28;20523;-64
2022/10/04 05:49:54;;;;;;;15.93;4.57;;;10.90;99.90;;;;;;5007348;28;20038;-64
2022/10/04 05:52:37;;;;;;;12.55;4.88;;;10.90;99.90;;;;;;5009020;28;20052;-62
2022/10/04 05:55:13;;;;;;;14.32;5.00;;;10.90;99.90;;;;;;5008293;28;20400;-63
2022/10/04 05:57:52;;;;;;;11.45;4.95;;;10.80;99.90;;;;;;5021140;28;20052;-57
2022/10/04 06:00:34;;;;;;;11.63;5.27;;;10.80;99.90;;;;;;5008851;28;20076;-65
2022/10/04 06:03:23;;;;;;;21.83;5.30;;;10.80;99.90;;;;;;5007646;28;20296;-58
2022/10/04 06:05:53;;;;;;;21.85;5.05;;;10.80;99.90;;;;;;5024282;28;20041;-64
2022/10/04 06:08:34;;;;;;;14.60;5.55;;;10.80;99.90;;;;;;5009450;28;20425;-58
2022/10/04 06:11:17;;;;;;;14.55;5.18;;;10.90;99.90;;;;;;5011227;28;20091;-59
2022/10/04 06:14:01;;;;;;;14.32;5.82;;;10.80;99.90;;;;;;5012255;28;20114;-58
2022/10/04 06:16:52;;;;;;;14.60;5.88;;;10.90;99.90;;;;;;4999496;28;20049;-59
2022/10/04 06:19:36;;;;;;;17.65;6.07;;;10.90;99.90;;;;;;5028130;28;20049;-68
2022/10/04 06:22:13;;;;;;;14.00;5.10;;;10.90;99.90;;;;;;5004375;28;20058;-65
2022/10/04 06:24:43;;;;;;;18.33;5.57;;;10.90;99.90;;;;;;5000672;28;20136;-58
2022/10/04 06:27:34;;;;;;;15.15;6.43;;;11.00;99.90;;;;;;5012080;28;20123;-59
2022/10/04 06:30:08;;;;;;;16.15;5.72;;;11.00;99.90;;;;;;5007757;28;20179;-62
2022/10/04 06:32:55;;;;;;;18.38;5.85;;;11.10;99.90;;;;;;5015476;28;20060;-66
2022/10/04 06:35:39;;;;;;;11.57;6.22;;;11.20;99.90;;;;;;5001305;28;20045;-66
2022/10/04 06:38:25;;;;;;;16.33;6.45;;;11.40;99.90;;;;;;4995664;28;20045;-62
2022/10/04 06:41:15;;;;;;;17.88;6.75;;;11.40;99.90;;;;;;5010296;28;20042;-62
2022/10/04 06:43:56;;;;;;;15.98;6.97;;;11.40;99.90;;;;;;5009347;28;20045;-62
2022/10/04 06:46:46;;;;;;;12.07;5.85;;;11.30;99.90;;;;;;5028465;28;20096;-58
2022/10/04 06:49:31;;;;;;;;;;;11.30;99.90;;;;;;4991633;28;20064;-62
2022/10/04 06:52:19;;;;;;;13.85;6.20;;;11.20;99.90;;;;;;4998215;28;20310;-63
2022/10/04 06:54:59;;;;;;;17.83;6.35;;;11.20;99.90;;;;;;5002751;28;20073;-58
2022/10/04 06:57:57;;;;;;;14.63;6.28;;;11.30;99.90;;;;;;5005306;28;20037;-67
2022/10/04 07:00:25;;;;;;;17.10;6.72;;;11.30;99.90;;;;;;4994015;28;20089;-58
2022/10/04 07:03:08;;;;;;;11.65;5.60;;;11.40;99.90;;;;;;5008158;28;20045;-62
2022/10/04 07:05:57;;;;;;;14.63;6.05;;;11.70;99.90;;;;;;5008346;28;20128;-68
2022/10/04 07:08:35;;;;;;;18.70;7.45;;;12.00;99.90;;;;;;5009071;28;20045;-66
2022/10/04 07:11:04;;;;;;;14.82;7.03;;;12.20;99.90;;;;;;5005453;28;20049;-68
2022/10/04 07:13:39;;;;;;;13.02;6.13;;;12.30;99.90;;;;;;5007446;28;20049;-66
2022/10/04 07:16:29;;;;;;;13.73;6.00;;;12.40;99.90;;;;;;5005191;28;20045;-64
2022/10/04 07:19:26;;;;;;;22.05;6.80;;;12.40;99.90;;;;;;4990388;28;20053;-62
2022/10/04 07:22:04;;;;;;;19.52;6.47;;;12.30;99.90;;;;;;5007681;28;20049;-66
2022/10/04 07:24:49;;;;;;;21.17;6.85;;;12.30;99.90;;;;;;5007230;28;20393;-65
2022/10/04 07:27:40;;;;;;;18.83;6.40;;;12.30;99.90;;;;;;4995400;28;20073;-59
2022/10/04 07:30:08;;;;;;;13.48;6.70;;;12.30;99.90;;;;;;5008248;28;20045;-62
2022/10/04 07:32:37;;;;;;;11.68;6.00;;;12.30;99.90;;;;;;5008494;28;20049;-64
2022/10/04 07:35:09;;;;;;;18.60;6.57;;;12.30;99.90;;;;;;5024629;28;20080;-65
2022/10/04 07:37:56;;;;;;;11.80;5.93;;;12.30;99.90;;;;;;5007117;28;20034;-58
2022/10/04 07:40:37;;;;;;;14.73;5.90;;;12.20;99.90;;;;;;5008799;28;20123;-69
2022/10/04 07:43:21;;;;;;;15.75;6.65;;;12.20;99.90;;;;;;5006539;28;20065;-60
2022/10/04 07:45:49;;;;;;;10.48;6.03;;;12.20;99.90;;;;;;5006436;28;20583;-58
2022/10/04 07:48:21;;;;;;;14.38;6.15;;;12.10;99.90;;;;;;5008783;28;20052;-65
2022/10/04 07:50:47;;;;;;;16.00;6.45;;;12.10;99.90;;;;;;5007504;28;20092;-59
2022/10/04 07:53:38;;;;;;;16.00;6.57;;;12.10;99.90;;;;;;5009165;28;20053;-69
2022/10/04 07:56:11;;;;;;;16.00;5.97;;;12.30;99.90;;;;;;5009755;28;20057;-66
2022/10/04 07:58:51;;;;;;;10.52;5.97;;;12.60;99.90;;;;;;5003515;28;20050;-66
2022/10/04 08:01:42;;;;;;;20.63;6.60;;;13.00;99.90;;;;;;4991650;28;20438;-63
2022/10/04 08:04:30;;;;;;;12.05;6.25;;;13.40;99.90;;;;;;5006165;28;20049;-59
2022/10/04 08:07:02;;;;;;;12.80;6.50;;;13.70;99.90;;;;;;5007548;28;20037;-60
2022/10/04 08:09:51;;;;;;;14.18;6.13;;;14.10;99.90;;;;;;5009060;28;20366;-59
2022/10/04 08:12:46;;;;;;;14.57;6.07;;;14.20;99.90;;;;;;5005940;28;20243;-64
2022/10/04 08:15:12;;;;;;;15.88;6.60;;;14.20;99.90;;;;;;5017723;28;20095;-61
2022/10/04 08:17:47;;;;;;;16.13;7.72;;;14.20;99.90;;;;;;4994728;28;20049;-58
2022/10/04 08:20:25;;;;;;;15.43;6.35;;;14.20;99.90;;;;;;4991541;28;20061;-67
2022/10/04 08:23:18;;;;;;;11.00;5.93;;;14.20;99.90;;;;;;4992828;28;20114;-58
2022/10/04 08:25:59;;;;;;;11.82;5.57;;;14.10;99.90;;;;;;5004575;28;20048;-65
2022/10/04 08:32:03;;;;;;;19.10;5.97;;;14.00;99.90;;;;;;5002744;28;20085;-64
2022/10/04 08:35:06;;;;;;;18.48;6.18;;;14.00;99.90;;;;;;5005148;28;20506;-60
2022/10/04 08:37:32;;;;;;;11.55;5.32;;;13.90;99.90;;;;;;4981844;28;20046;-66
2022/10/04 08:40:22;;;;;;;11.98;5.68;;;13.80;99.90;;;;;;5001058;28;20431;-65
2022/10/04 08:43:13;;;;;;;14.90;5.45;;;13.80;99.90;;;;;;4987533;28;20051;-69
2022/10/04 08:46:11;;;;;;;15.80;5.35;;;13.80;99.90;;;;;;5005146;28;20490;-58
2022/10/04 08:48:52;;;;;;;15.65;5.50;;;13.70;99.90;;;;;;5001596;28;20037;-68
2022/10/04 08:51:26;;;;;;;10.50;5.32;;;13.70;99.90;;;;;;5021609;28;20477;-60
2022/10/04 08:54:20;;;;;;;9.65;5.60;;;13.70;99.90;;;;;;5003136;28;20045;-58
2022/10/04 08:57:01;;;;;;;13.95;5.72;;;13.80;99.90;;;;;;4985952;28;20567;-59
2022/10/04 08:59:51;;;;;;;10.65;6.50;;;14.00;99.90;;;;;;5003436;28;20128;-61
2022/10/04 09:02:41;;;;;;;11.65;4.65;;;14.10;99.90;;;;;;4984362;28;20713;-58
2022/10/04 09:05:45;;;;;;;7.97;4.32;;;14.30;99.90;;;;;;5023794;28;20140;-59
2022/10/04 09:08:48;;;;;;;11.30;4.88;;;14.50;99.90;;;;;;5001105;28;20836;-67
2022/10/04 09:11:40;;;;;;;15.07;5.07;;;14.60;99.90;;;;;;5011622;28;20049;-60
2022/10/04 09:14:18;;;;;;;17.25;4.85;;;14.70;99.90;;;;;;5014816;28;20053;-62
2022/10/04 09:16:47;;;;;;;11.05;5.20;;;14.90;99.90;;;;;;5008053;28;20136;-61
2022/10/04 09:19:26;;;;;;;18.75;5.65;;;15.00;99.90;;;;;;5008372;28;20057;-60
2022/10/04 09:21:55;;;;;;;12.85;4.82;;;15.10;99.90;;;;;;5026306;28;20045;-70
2022/10/04 09:24:27;;;;;;;14.57;4.90;;;15.20;99.90;;;;;;5018540;28;20376;-65
2022/10/04 09:27:10;;;;;;;14.73;5.88;;;15.30;99.90;;;;;;5038351;28;20053;-69
2022/10/04 09:29:36;;;;;;;11.77;4.72;;;15.40;99.90;;;;;;5021381;28;20033;-59
2022/10/04 09:32:02;;;;;;;9.25;4.55;;;15.50;99.90;;;;;;5011903;28;20404;-62
2022/10/04 09:34:49;;;;;;;12.30;4.50;;;15.60;99.90;;;;;;5014166;28;20041;-63
2022/10/04 09:37:40;;;;;;;14.32;5.15;;;15.60;99.90;;;;;;5007618;28;20492;-64
2022/10/04 09:40:50;;;;;;;10.95;5.32;;;15.80;99.90;;;;;;4994257;28;20056;-62
2022/10/04 09:43:44;;;;;;;9.82;3.97;;;16.00;99.90;;;;;;5004861;28;20888;-59
2022/10/04 09:46:41;;;;;;;15.00;4.63;;;16.10;99.90;;;;;;4989526;28;20107;-63
2022/10/04 09:49:10;;;;;;;13.65;4.57;;;16.20;99.90;;;;;;5007498;28;20489;-63
2022/10/04 09:51:54;;;;;;;12.32;4.15;;;16.30;99.90;;;;;;5006654;28;20048;-62
2022/10/04 09:54:58;;;;;;;10.70;3.55;;;16.30;99.90;;;;;;4990401;28;20041;-62
2022/10/04 09:57:47;;;;;;;15.85;4.10;;;16.30;99.90;;;;;;4939584;28;20057;-60
2022/10/04 10:00:23;;;;;;;13.30;3.90;;;16.40;99.90;;;;;;5006131;28;20579;-61
2022/10/04 10:03:01;;;;;;;11.90;3.53;;;16.50;99.90;;;;;;5008228;28;20053;-63
2022/10/04 10:05:30;;;;;;;8.68;3.22;;;16.60;99.90;;;;;;4999149;28;20479;-58
2022/10/04 10:08:23;;;;;;;10.13;4.10;;;16.70;99.90;;;;;;5001933;28;20176;-59
2022/10/04 10:14:15;;;;;;;11.13;3.30;;;16.70;99.90;;;;;;5014595;28;20049;-59
2022/10/04 10:16:52;;;;;;;11.30;3.50;;;16.80;99.90;;;;;;5022444;28;20054;-70
2022/10/04 10:20:09;;;;;;;9.90;3.90;;;16.80;99.90;;;;;;5003255;28;20136;-62
2022/10/04 10:23:16;;;;;;;9.65;3.60;;;16.90;99.90;;;;;;4943225;28;20502;-63
2022/10/04 10:26:07;;;;;;;10.95;3.55;;;16.90;99.90;;;;;;5006517;28;20076;-65
2022/10/04 10:29:01;;;;;;;8.77;3.55;;;17.00;99.90;;;;;;5000187;28;20140;-67
2022/10/04 10:31:43;;;;;;;10.02;3.47;;;17.20;99.90;;;;;;5013360;28;20214;-58
2022/10/04 10:34:30;;;;;;;11.32;3.35;;;17.20;99.90;;;;;;5007020;28;20564;-63
2022/10/04 10:37:14;;;;;;;7.53;2.88;;;17.20;99.90;;;;;;5029860;28;20037;-62
2022/10/04 10:39:49;;;;;;;6.28;2.85;;;17.20;99.90;;;;;;5000273;28;20045;-63
2022/10/04 10:42:42;;;;;;;5.88;3.28;;;17.20;99.90;;;;;;4992660;28;20033;-58
2022/10/04 10:45:45;;;;;;;7.10;2.90;;;17.20;99.90;;;;;;5007000;28;20208;-59
2022/10/04 10:48:21;;;;;;;9.68;3.10;;;17.20;99.90;;;;;;4986901;28;20574;-62
2022/10/04 10:50:59;;;;;;;11.05;3.38;;;17.20;99.90;;;;;;5004259;28;20049;-59
2022/10/04 10:53:49;;;;;;;8.00;2.72;;;17.20;99.90;;;;;;5005308;28;20095;-62
2022/10/04 10:56:33;;;;;;;;;;;17.20;99.40;;;;;;4988222;28;20338;-58
2022/10/04 10:59:20;;;;;;;6.38;3.28;;;17.20;99.90;;;;;;4996353;28;20319;-66
2022/10/04 11:02:03;;;;;;;4.95;2.53;;;17.20;99.40;;;;;;5008266;28;20543;-60
2022/10/04 11:04:39;;;;;;;8.07;3.40;;;17.20;98.90;;;;;;4990515;28;20048;-70
2022/10/04 11:07:41;;;;;;;6.97;3.30;;;17.30;99.90;;;;;;5006486;28;20038;-67
2022/10/04 11:10:30;;;;;;;10.57;3.22;;;17.40;99.90;;;;;;5020398;28;20381;-61
2022/10/04 11:13:20;;;;;;;9.95;3.90;;;17.40;98.40;;;;;;5024216;28;20076;-63
2022/10/04 11:16:11;;;;;;;10.65;2.97;;;17.40;99.90;;;;;;5026198;28;20080;-61
2022/10/04 11:18:55;;;;;;;9.63;3.40;;;17.50;99.90;;;;;;5020829;28;20123;-61
2022/10/04 11:22:12;;;;;;;5.95;3.30;;;17.60;97.80;;;;;;5016653;28;20045;-63
2022/10/04 11:25:15;;;;;;;8.15;2.63;;;17.60;97.80;;;;;;4939928;28;20050;-69
2022/10/04 11:28:18;;;;;;;10.32;4.47;;;17.70;96.60;;;;;;4972615;28;20113;-59
2022/10/04 11:31:02;;;;;;;8.30;3.08;;;17.70;96.00;;;;;;4979603;28;20064;-60
2022/10/04 11:34:01;;;;;;;6.28;3.05;;;17.70;94.30;;;;;;4986167;28;20041;-58
2022/10/04 11:37:01;;;;;;;7.95;3.10;;;17.80;93.50;;;;;;4989655;28;20054;-59
2022/10/04 11:39:40;;;;;;;8.88;2.65;;;17.80;93.20;;;;;;4982490;28;20116;-61
2022/10/04 11:42:20;;;;;;;5.63;2.73;;;17.80;93.30;;;;;;4986999;28;20611;-65
2022/10/04 11:45:18;;;;;;;7.35;2.72;;;17.90;92.50;;;;;;4984912;28;20288;-59
2022/10/04 11:47:55;;;;;;;8.00;3.30;;;17.90;93.10;;;;;;4965097;28;20053;-60
2022/10/04 11:50:27;;;;;;;7.38;2.92;;;17.90;94.00;;;;;;4987526;28;20054;-68
2022/10/04 11:53:34;;;;;;;9.75;2.78;;;18.00;93.70;;;;;;4987373;28;20515;-65
2022/10/04 11:56:21;;;;;;;8.05;2.95;;;18.00;90.80;;;;;;4940577;28;20527;-58
2022/10/04 11:59:19;;;;;;;13.70;3.58;;;18.10;89.30;;;;;;4990437;28;20053;-62
2022/10/04 12:02:00;;;;;;;9.10;3.28;;;18.10;88.50;;;;;;4975548;28;20072;-58
2022/10/04 12:05:07;;;;;;;11.30;2.88;;;18.10;93.10;;;;;;4973476;28;20128;-65
2022/10/04 12:08:08;;;;;;;8.50;3.42;;;18.20;94.40;;;;;;4955553;28;20057;-60
2022/10/04 12:10:37;;;;;;;4.10;2.60;;;18.30;88.30;;;;;;4988489;28;20060;-65
2022/10/04 12:13:03;;;;;;;3.58;1.95;;;18.30;84.30;;;;;;4990171;28;20481;-64
2022/10/04 12:15:48;;;;;;;6.93;2.65;;;18.30;89.40;;;;;;4989956;28;20058;-60
2022/10/04 12:18:51;;;;;;;4.60;2.30;;;18.20;84.10;;;;;;4977103;28;20393;-67
2022/10/04 12:21:39;;;;;;;5.10;2.60;;;18.20;79.20;;;;;;4989661;28;20532;-66
2022/10/04 12:24:23;;;;;;;8.23;3.25;;;18.30;86.40;;;;;;5005778;28;20057;-60
2022/10/04 12:27:14;;;;;;;10.82;3.60;;;18.30;84.00;;;;;;5022799;28;20606;-70
2022/10/04 12:29:59;;;;;;;6.60;3.03;;;18.30;86.50;;;;;;5003585;28;20038;-62
2022/10/04 12:32:34;;;;;;;8.52;3.08;;;18.40;85.00;;;;;;4986373;28;20934;-64
2022/10/04 12:35:25;;;;;;;9.10;2.67;;;18.40;87.00;;;;;;5002385;28;20069;-62
2022/10/04 12:38:24;;;;;;;9.95;3.38;;;18.30;85.30;;;;;;5006506;28;20049;-65
2022/10/04 12:41:14;;;;;;;9.77;3.05;;;18.40;92.30;;;;;;5005130;28;20427;-59
2022/10/04 12:44:03;;;;;;;4.97;3.10;;;18.50;88.20;;;;;;5005374;28;20069;-61
2022/10/04 12:46:45;;;;;;;7.75;2.58;;;18.50;87.70;;;;;;4988803;28;20053;-67
2022/10/04 12:49:56;;;;;;;8.48;2.53;;;18.40;81.50;;;;;;5005731;28;20041;-66
2022/10/04 12:52:24;;;;;;;9.90;2.75;;;18.30;74.70;;;;;;5004623;28;20136;-66
2022/10/04 12:55:02;;;;;;;6.18;2.40;;;18.30;78.90;;;;;;5006296;28;20048;-63
2022/10/04 12:57:46;;;;;;;5.03;2.47;;;18.30;81.10;;;;;;5004447;28;20491;-63
2022/10/04 13:00:27;;;;;;;5.50;2.63;;;18.30;77.90;;;;;;5003432;28;20538;-63
2022/10/04 13:03:12;;;;;;;8.68;2.50;;;18.40;82.10;;;;;;5006081;28;20120;-65
2022/10/04 13:05:49;;;;;;;6.60;2.60;;;18.50;79.50;;;;;;5001045;28;20060;-65
2022/10/04 13:08:30;;;;;;;4.55;2.40;;;18.50;79.10;;;;;;5008633;28;20053;-62
2022/10/04 13:11:17;;;;;;;6.72;2.40;;;18.50;72.60;;;;;;5018454;28;20041;-63
2022/10/04 13:14:15;;;;;;;9.70;2.95;;;18.50;69.90;;;;;;5025047;28;20069;-67
2022/10/04 13:17:12;;;;;;;5.90;2.58;;;18.50;73.60;;;;;;4999814;28;20084;-67
2022/10/04 13:19:59;;;;;;;7.45;2.72;;;18.50;75.90;;;;;;4990591;28;20045;-59
2022/10/04 13:22:46;;;;;;;4.55;2.20;;;18.40;73.40;;;;;;5004656;28;20037;-66
2022/10/04 13:25:53;;;;;;;4.03;2.17;;;18.40;69.80;;;;;;5008486;28;20136;-58
2022/10/04 13:28:30;;;;;;;5.30;2.50;;;18.30;70.70;;;;;;4955989;28;20108;-58
2022/10/04 13:31:23;;;;;;;4.68;2.63;;;18.20;73.00;;;;;;4994113;28;20598;-59
2022/10/04 13:34:21;;;;;;;5.13;2.45;;;18.20;69.50;;;;;;4999800;28;20527;-59
2022/10/04 13:37:27;;;;;;;8.70;3.17;;;18.30;74.50;;;;;;5002946;28;20049;-62
2022/10/04 13:40:04;;;;;;;6.07;2.60;;;18.40;73.30;;;;;;5015776;28;20061;-69
2022/10/04 13:42:47;;;;;;;7.57;2.88;;;18.50;72.50;;;;;;5001203;28;20399;-62
2022/10/04 13:45:44;;;;;;;6.82;3.00;;;18.50;74.70;;;;;;4993843;28;20072;-58
2022/10/04 13:48:33;;;;;;;7.43;2.35;;;18.50;71.10;;;;;;5000013;28;20049;-59
2022/10/04 13:51:39;;;;;;;6.22;2.40;;;18.50;72.10;;;;;;5022906;28;20547;-67
2022/10/04 13:57:12;;;;;;;7.28;2.85;;;18.60;80.10;;;;;;4999727;28;20046;-64
2022/10/04 13:59:47;;;;;;;9.15;2.80;;;18.60;72.90;;;;;;5023010;28;20460;-61
2022/10/04 14:02:45;;;;;;;6.60;3.10;;;18.60;70.60;;;;;;4985505;28;20050;-65